sensor_id;sensor_type;location;lat;lon;timestamp;pressure;altitude;pressure_sealevel;temperature;humidity
20043;BME280;10182;52.896;6.496;2023-08-21T00:04:00;102253.50;;;14.84;100.00
20043;BME280;10182;52.896;6.496;2023-08-21T00:09:03;102249.16;;;14.82;100.00
20043;BME280;10182;52.896;6.496;2023-08-21T00:14:05;102242.72;;;14.87;100.00
20043;BME280;10182;52.896;6.496;2023-08-21T00:19:08;102241.78;;;14.88;100.00
20043;BME280;10182;52.896;6.496;2023-08-21T00:24:09;102248.09;;;14.86;100.00
20043;BME280;10182;52.896;6.496;2023-08-21T00:29:11;102250.16;;;14.79;100.00
20043;BME280;10182;52.896;6.496;2023-08-21T00:34:14;102253.56;;;14.83;100.00
20043;BME280;10182;52.896;6.496;2023-08-21T00:39:16;102254.84;;;14.49;100.00
20043;BME280;10182;52.896;6.496;2023-08-21T00:44:17;102256.09;;;14.40;100.00
20043;BME280;10182;52.896;6.496;2023-08-21T00:49:21;102260.50;;;14.41;100.00
20043;BME280;10182;52.896;6.496;2023-08-21T00:54:22;102258.53;;;14.46;100.00
20043;BME280;10182;52.896;6.496;2023-08-21T00:59:24;102257.78;;;14.43;100.00
20043;BME280;10182;52.896;6.496;2023-08-21T01:04:27;102258.47;;;14.48;100.00
20043;BME280;10182;52.896;6.496;2023-08-21T01:09:33;102255.06;;;14.44;100.00
20043;BME280;10182;52.896;6.496;2023-08-21T01:14:44;102258.56;;;14.45;100.00
20043;BME280;10182;52.896;6.496;2023-08-21T01:19:52;102260.63;;;14.38;100.00
20043;BME280;10182;52.896;6.496;2023-08-21T01:24:55;102271.31;;;14.38;100.00
20043;BME280;10182;52.896;6.496;2023-08-21T01:29:57;102269.97;;;14.26;100.00
20043;BME280;10182;52.896;6.496;2023-08-21T01:35:00;102265.81;;;14.17;100.00
20043;BME280;10182;52.896;6.496;2023-08-21T01:40:05;102276.50;;;14.17;100.00
20043;BME280;10182;52.896;6.496;2023-08-21T01:45:08;102273.81;;;14.17;100.00
20043;BME280;10182;52.896;6.496;2023-08-21T01:50:10;102275.47;;;14.21;100.00
20043;BME280;10182;52.896;6.496;2023-08-21T01:55:13;102272.91;;;14.18;100.00
20043;BME280;10182;52.896;6.496;2023-08-21T02:00:15;102271.22;;;13.92;100.00
20043;BME280;10182;52.896;6.496;2023-08-21T02:05:17;102269.97;;;13.77;100.00
20043;BME280;10182;52.896;6.496;2023-08-21T02:10:20;102267.03;;;13.85;100.00
20043;BME280;10182;52.896;6.496;2023-08-21T02:15:21;102274.06;;;13.87;100.00
20043;BME280;10182;52.896;6.496;2023-08-21T02:20:23;102265.81;;;13.94;100.00
20043;BME280;10182;52.896;6.496;2023-08-21T02:25:26;102263.19;;;13.68;100.00
20043;BME280;10182;52.896;6.496;2023-08-21T02:30:28;102267.47;;;13.47;100.00
20043;BME280;10182;52.896;6.496;2023-08-21T02:35:30;102276.72;;;13.37;100.00
20043;BME280;10182;52.896;6.496;2023-08-21T02:40:33;102275.34;;;13.24;100.00
20043;BME280;10182;52.896;6.496;2023-08-21T02:45:34;102279.03;;;13.19;100.00
20043;BME280;10182;52.896;6.496;2023-08-21T02:50:36;102286.00;;;13.24;100.00
20043;BME280;10182;52.896;6.496;2023-08-21T02:55:39;102285.56;;;13.09;100.00
20043;BME280;10182;52.896;6.496;2023-08-21T03:00:41;102282.16;;;13.06;100.00
20043;BME280;10182;52.896;6.496;2023-08-21T03:05:43;102281.53;;;12.97;100.00
20043;BME280;10182;52.896;6.496;2023-08-21T03:10:46;102282.09;;;13.07;100.00
20043;BME280;10182;52.896;6.496;2023-08-21T03:15:47;102277.06;;;12.98;100.00
20043;BME280;10182;52.896;6.496;2023-08-21T03:20:49;102264.28;;;12.82;100.00
20043;BME280;10182;52.896;6.496;2023-08-21T03:25:53;102267.56;;;12.91;100.00
20043;BME280;10182;52.896;6.496;2023-08-21T03:30:54;102268.13;;;13.00;100.00
20043;BME280;10182;52.896;6.496;2023-08-21T03:35:56;102258.00;;;12.85;100.00
20043;BME280;10182;52.896;6.496;2023-08-21T03:40:59;102265.00;;;12.88;100.00
20043;BME280;10182;52.896;6.496;2023-08-21T03:46:01;102258.56;;;12.95;100.00
20043;BME280;10182;52.896;6.496;2023-08-21T03:51:03;102266.47;;;12.96;100.00
20043;BME280;10182;52.896;6.496;2023-08-21T03:56:06;102259.47;;;12.94;100.00
20043;BME280;10182;52.896;6.496;2023-08-21T04:01:08;102260.31;;;12.96;100.00
20043;BME280;10182;52.896;6.496;2023-08-21T04:06:09;102252.63;;;12.86;100.00
20043;BME280;10182;52.896;6.496;2023-08-21T04:11:12;102253.34;;;12.92;100.00
20043;BME280;10182;52.896;6.496;2023-08-21T04:16:14;102254.09;;;12.95;100.00
20043;BME280;10182;52.896;6.496;2023-08-21T04:21:18;102259.41;;;12.95;100.00
20043;BME280;10182;52.896;6.496;2023-08-21T04:26:21;102268.81;;;12.79;100.00
20043;BME280;10182;52.896;6.496;2023-08-21T04:31:22;102268.97;;;12.74;100.00
20043;BME280;10182;52.896;6.496;2023-08-21T04:36:24;102278.78;;;12.72;100.00
20043;BME280;10182;52.896;6.496;2023-08-21T04:41:27;102285.19;;;12.65;100.00
20043;BME280;10182;52.896;6.496;2023-08-21T04:46:29;102268.09;;;12.74;100.00
20043;BME280;10182;52.896;6.496;2023-08-21T04:51:30;102263.34;;;12.83;100.00
20043;BME280;10182;52.896;6.496;2023-08-21T04:56:33;102263.59;;;12.76;100.00
20043;BME280;10182;52.896;6.496;2023-08-21T05:01:35;102267.00;;;12.79;100.00
20043;BME280;10182;52.896;6.496;2023-08-21T05:06:37;102268.97;;;13.01;100.00
20043;BME280;10182;52.896;6.496;2023-08-21T05:11:40;102267.69;;;13.41;100.00
20043;BME280;10182;52.896;6.496;2023-08-21T05:16:44;102272.38;;;13.60;100.00
20043;BME280;10182;52.896;6.496;2023-08-21T05:21:46;102271.19;;;13.68;100.00
20043;BME280;10182;52.896;6.496;2023-08-21T05:26:49;102266.28;;;13.81;100.00
20043;BME280;10182;52.896;6.496;2023-08-21T05:31:51;102273.81;;;13.94;100.00
20043;BME280;10182;52.896;6.496;2023-08-21T05:36:52;102281.16;;;14.12;100.00
20043;BME280;10182;52.896;6.496;2023-08-21T05:41:56;102286.63;;;14.08;100.00
20043;BME280;10182;52.896;6.496;2023-08-21T05:46:59;102288.44;;;14.31;100.00
20043;BME280;10182;52.896;6.496;2023-08-21T05:52:00;102290.06;;;14.59;100.00
20043;BME280;10182;52.896;6.496;2023-08-21T05:57:03;102285.38;;;14.87;100.00
20043;BME280;10182;52.896;6.496;2023-08-21T06:02:05;102284.06;;;15.20;100.00
20043;BME280;10182;52.896;6.496;2023-08-21T06:07:07;102293.25;;;15.55;100.00
20043;BME280;10182;52.896;6.496;2023-08-21T06:12:10;102296.47;;;15.84;100.00
20043;BME280;10182;52.896;6.496;2023-08-21T06:17:12;102300.50;;;16.14;100.00
20043;BME280;10182;52.896;6.496;2023-08-21T06:22:13;102301.88;;;16.41;100.00
20043;BME280;10182;52.896;6.496;2023-08-21T06:27:17;102296.34;;;16.65;100.00
20043;BME280;10182;52.896;6.496;2023-08-21T06:32:19;102289.16;;;16.85;100.00
20043;BME280;10182;52.896;6.496;2023-08-21T06:37:20;102284.88;;;17.00;100.00
20043;BME280;10182;52.896;6.496;2023-08-21T06:42:23;102288.25;;;17.22;100.00
20043;BME280;10182;52.896;6.496;2023-08-21T06:47:25;102287.06;;;17.46;100.00
20043;BME280;10182;52.896;6.496;2023-08-21T06:52:27;102295.16;;;17.62;100.00
20043;BME280;10182;52.896;6.496;2023-08-21T06:57:30;102293.50;;;17.76;100.00
20043;BME280;10182;52.896;6.496;2023-08-21T07:02:31;102290.56;;;17.99;100.00
20043;BME280;10182;52.896;6.496;2023-08-21T07:07:33;102284.47;;;18.13;100.00
20043;BME280;10182;52.896;6.496;2023-08-21T07:12:36;102281.38;;;18.36;100.00
20043;BME280;10182;52.896;6.496;2023-08-21T07:17:38;102282.00;;;18.57;100.00
20043;BME280;10182;52.896;6.496;2023-08-21T07:22:39;102280.53;;;18.84;100.00
20043;BME280;10182;52.896;6.496;2023-08-21T07:27:44;102277.69;;;19.03;100.00
20043;BME280;10182;52.896;6.496;2023-08-21T07:32:46;102271.22;;;19.21;100.00
20043;BME280;10182;52.896;6.496;2023-08-21T07:37:48;102270.97;;;19.40;100.00
20043;BME280;10182;52.896;6.496;2023-08-21T07:42:51;102275.50;;;19.54;100.00
20043;BME280;10182;52.896;6.496;2023-08-21T07:47:53;102278.03;;;19.72;100.00
20043;BME280;10182;52.896;6.496;2023-08-21T07:52:54;102275.59;;;19.98;100.00
20043;BME280;10182;52.896;6.496;2023-08-21T07:57:57;102278.47;;;20.23;100.00
20043;BME280;10182;52.896;6.496;2023-08-21T08:02:59;102275.47;;;20.42;100.00
20043;BME280;10182;52.896;6.496;2023-08-21T08:08:00;102279.66;;;20.61;100.00
20043;BME280;10182;52.896;6.496;2023-08-21T08:13:03;102275.47;;;20.84;100.00
20043;BME280;10182;52.896;6.496;2023-08-21T08:18:10;102269.28;;;20.96;100.00
20043;BME280;10182;52.896;6.496;2023-08-21T08:23:12;102258.34;;;21.12;100.00
20043;BME280;10182;52.896;6.496;2023-08-21T08:28:16;102279.91;;;21.25;100.00
20043;BME280;10182;52.896;6.496;2023-08-21T08:33:17;102271.19;;;21.35;100.00
20043;BME280;10182;52.896;6.496;2023-08-21T08:38:19;102280.53;;;21.56;100.00
20043;BME280;10182;52.896;6.496;2023-08-21T08:43:24;102278.50;;;21.73;100.00
20043;BME280;10182;52.896;6.496;2023-08-21T08:48:26;102272.56;;;21.93;100.00
20043;BME280;10182;52.896;6.496;2023-08-21T08:53:29;102266.94;;;21.96;100.00
20043;BME280;10182;52.896;6.496;2023-08-21T08:58:32;102266.28;;;22.19;100.00
20043;BME280;10182;52.896;6.496;2023-08-21T09:03:34;102268.31;;;22.41;100.00
20043;BME280;10182;52.896;6.496;2023-08-21T09:08:36;102271.59;;;22.57;100.00
20043;BME280;10182;52.896;6.496;2023-08-21T09:13:39;102267.94;;;22.82;100.00
20043;BME280;10182;52.896;6.496;2023-08-21T09:18:46;102273.03;;;22.98;100.00
20043;BME280;10182;52.896;6.496;2023-08-21T09:23:48;102266.19;;;23.06;100.00
20043;BME280;10182;52.896;6.496;2023-08-21T09:28:53;102268.16;;;23.28;100.00
20043;BME280;10182;52.896;6.496;2023-08-21T09:33:55;102264.94;;;23.23;100.00
20043;BME280;10182;52.896;6.496;2023-08-21T09:38:57;102258.59;;;23.35;100.00
20043;BME280;10182;52.896;6.496;2023-08-21T09:44:01;102259.97;;;23.52;100.00
20043;BME280;10182;52.896;6.496;2023-08-21T09:49:04;102263.94;;;23.71;100.00
20043;BME280;10182;52.896;6.496;2023-08-21T09:54:06;102263.31;;;23.56;100.00
20043;BME280;10182;52.896;6.496;2023-08-21T09:59:11;102270.22;;;23.71;100.00
20043;BME280;10182;52.896;6.496;2023-08-21T10:04:13;102268.66;;;23.91;100.00
20043;BME280;10182;52.896;6.496;2023-08-21T10:09:15;102267.69;;;23.92;100.00
20043;BME280;10182;52.896;6.496;2023-08-21T10:14:19;102260.81;;;23.88;100.00
20043;BME280;10182;52.896;6.496;2023-08-21T10:19:22;102257.72;;;24.15;100.00
20043;BME280;10182;52.896;6.496;2023-08-21T10:24:32;102249.72;;;24.03;100.00
20043;BME280;10182;52.896;6.496;2023-08-21T10:29:38;102255.00;;;24.04;100.00
20043;BME280;10182;52.896;6.496;2023-08-21T10:34:51;102254.88;;;24.17;100.00
20043;BME280;10182;52.896;6.496;2023-08-21T10:39:55;102246.41;;;23.99;100.00
20043;BME280;10182;52.896;6.496;2023-08-21T10:45:10;102242.09;;;24.08;100.00
20043;BME280;10182;52.896;6.496;2023-08-21T10:50:11;102236.19;;;24.25;100.00
20043;BME280;10182;52.896;6.496;2023-08-21T10:55:15;102248.66;;;24.49;100.00
20043;BME280;10182;52.896;6.496;2023-08-21T11:00:19;102249.66;;;24.48;100.00
20043;BME280;10182;52.896;6.496;2023-08-21T11:05:21;102260.66;;;24.35;100.00
20043;BME280;10182;52.896;6.496;2023-08-21T11:10:23;102256.09;;;24.24;100.00
20043;BME280;10182;52.896;6.496;2023-08-21T11:15:28;102257.84;;;24.25;100.00
20043;BME280;10182;52.896;6.496;2023-08-21T11:20:30;102261.16;;;24.17;100.00
20043;BME280;10182;52.896;6.496;2023-08-21T11:25:33;102257.19;;;24.44;100.00
20043;BME280;10182;52.896;6.496;2023-08-21T11:30:36;102254.72;;;24.53;100.00
20043;BME280;10182;52.896;6.496;2023-08-21T11:35:38;102266.53;;;24.52;100.00
20043;BME280;10182;52.896;6.496;2023-08-21T11:40:40;102244.34;;;24.69;100.00
20043;BME280;10182;52.896;6.496;2023-08-21T11:45:45;102253.88;;;24.84;100.00
20043;BME280;10182;52.896;6.496;2023-08-21T11:50:48;102252.06;;;24.85;100.00
20043;BME280;10182;52.896;6.496;2023-08-21T11:55:50;102241.97;;;25.08;100.00
20043;BME280;10182;52.896;6.496;2023-08-21T12:00:53;102236.41;;;25.10;98.87
20043;BME280;10182;52.896;6.496;2023-08-21T12:05:55;102224.84;;;25.29;100.00
20043;BME280;10182;52.896;6.496;2023-08-21T12:10:57;102220.81;;;25.23;100.00
20043;BME280;10182;52.896;6.496;2023-08-21T12:16:00;102219.16;;;25.11;100.00
20043;BME280;10182;52.896;6.496;2023-08-21T12:21:01;102213.41;;;25.25;98.00
20043;BME280;10182;52.896;6.496;2023-08-21T12:26:03;102216.94;;;25.37;92.81
20043;BME280;10182;52.896;6.496;2023-08-21T12:31:06;102216.34;;;25.33;90.06
20043;BME280;10182;52.896;6.496;2023-08-21T12:36:08;102218.19;;;25.54;81.16
20043;BME280;10182;52.896;6.496;2023-08-21T12:41:10;102211.03;;;25.53;83.52
20043;BME280;10182;52.896;6.496;2023-08-21T12:46:13;102209.00;;;25.76;77.36
20043;BME280;10182;52.896;6.496;2023-08-21T12:51:15;102206.63;;;25.93;80.71
20043;BME280;10182;52.896;6.496;2023-08-21T12:56:16;102208.31;;;26.15;79.22
20043;BME280;10182;52.896;6.496;2023-08-21T13:01:19;102212.88;;;26.24;84.30
20043;BME280;10182;52.896;6.496;2023-08-21T13:06:21;102210.91;;;26.16;76.30
20043;BME280;10182;52.896;6.496;2023-08-21T13:11:23;102207.50;;;25.93;78.26
20043;BME280;10182;52.896;6.496;2023-08-21T13:16:26;102196.03;;;26.11;83.47
20043;BME280;10182;52.896;6.496;2023-08-21T13:21:27;102201.16;;;26.04;84.36
20043;BME280;10182;52.896;6.496;2023-08-21T13:26:29;102189.78;;;25.89;93.69
20043;BME280;10182;52.896;6.496;2023-08-21T13:31:33;102192.66;;;25.97;85.52
20043;BME280;10182;52.896;6.496;2023-08-21T13:36:34;102184.44;;;26.09;83.42
20043;BME280;10182;52.896;6.496;2023-08-21T13:41:36;102181.38;;;25.61;87.49
20043;BME280;10182;52.896;6.496;2023-08-21T13:46:39;102175.16;;;24.97;100.00
20043;BME280;10182;52.896;6.496;2023-08-21T13:51:41;102173.22;;;25.09;100.00
20043;BME280;10182;52.896;6.496;2023-08-21T13:56:42;102175.72;;;25.43;100.00
20043;BME280;10182;52.896;6.496;2023-08-21T14:01:45;102163.72;;;25.36;99.53
20043;BME280;10182;52.896;6.496;2023-08-21T14:06:47;102162.56;;;25.70;99.10
20043;BME280;10182;52.896;6.496;2023-08-21T14:11:49;102167.78;;;25.92;91.91
20043;BME280;10182;52.896;6.496;2023-08-21T14:16:52;102159.66;;;25.61;86.94
20043;BME280;10182;52.896;6.496;2023-08-21T14:21:54;102161.19;;;25.75;94.09
20043;BME280;10182;52.896;6.496;2023-08-21T14:26:55;102162.94;;;25.55;91.43
20043;BME280;10182;52.896;6.496;2023-08-21T14:31:59;102157.75;;;25.21;100.00
20043;BME280;10182;52.896;6.496;2023-08-21T14:37:01;102151.06;;;24.62;97.12
20043;BME280;10182;52.896;6.496;2023-08-21T14:42:04;102158.34;;;24.50;100.00
20043;BME280;10182;52.896;6.496;2023-08-21T14:47:08;102162.38;;;24.88;100.00
20043;BME280;10182;52.896;6.496;2023-08-21T14:52:09;102145.44;;;25.17;100.00
20043;BME280;10182;52.896;6.496;2023-08-21T14:57:11;102129.94;;;25.50;100.00
20043;BME280;10182;52.896;6.496;2023-08-21T15:02:14;102132.53;;;25.61;97.37
20043;BME280;10182;52.896;6.496;2023-08-21T15:07:15;102129.78;;;25.82;87.02
20043;BME280;10182;52.896;6.496;2023-08-21T15:12:17;102130.94;;;25.90;87.00
20043;BME280;10182;52.896;6.496;2023-08-21T15:17:20;102130.38;;;25.96;84.83
20043;BME280;10182;52.896;6.496;2023-08-21T15:22:22;102112.06;;;25.88;81.90
20043;BME280;10182;52.896;6.496;2023-08-21T15:27:23;102115.06;;;25.75;81.65
20043;BME280;10182;52.896;6.496;2023-08-21T15:32:27;102117.69;;;25.56;82.60
20043;BME280;10182;52.896;6.496;2023-08-21T15:37:28;102112.66;;;25.41;86.73
20043;BME280;10182;52.896;6.496;2023-08-21T15:42:30;102105.63;;;25.39;77.85
20043;BME280;10182;52.896;6.496;2023-08-21T15:47:33;102102.78;;;25.40;77.57
20043;BME280;10182;52.896;6.496;2023-08-21T15:52:35;102101.28;;;25.26;80.61
20043;BME280;10182;52.896;6.496;2023-08-21T15:57:37;102103.81;;;25.18;76.39
20043;BME280;10182;52.896;6.496;2023-08-21T16:02:41;102106.06;;;25.13;80.42
20043;BME280;10182;52.896;6.496;2023-08-21T16:07:42;102094.28;;;25.03;73.59
20043;BME280;10182;52.896;6.496;2023-08-21T16:12:44;102093.25;;;24.94;70.52
20043;BME280;10182;52.896;6.496;2023-08-21T16:17:48;102098.75;;;24.82;75.97
20043;BME280;10182;52.896;6.496;2023-08-21T16:22:50;102101.50;;;24.71;80.52
20043;BME280;10182;52.896;6.496;2023-08-21T16:27:52;102087.16;;;24.59;83.59
20043;BME280;10182;52.896;6.496;2023-08-21T16:32:55;102083.03;;;24.44;79.41
20043;BME280;10182;52.896;6.496;2023-08-21T16:37:57;102073.91;;;24.45;81.42
20043;BME280;10182;52.896;6.496;2023-08-21T16:42:59;102080.44;;;24.42;100.00
20043;BME280;10182;52.896;6.496;2023-08-21T16:48:02;102087.00;;;24.07;100.00
20043;BME280;10182;52.896;6.496;2023-08-21T16:53:03;102082.97;;;23.90;100.00
20043;BME280;10182;52.896;6.496;2023-08-21T16:58:05;102079.53;;;23.77;100.00
20043;BME280;10182;52.896;6.496;2023-08-21T17:03:09;102087.91;;;23.62;100.00
20043;BME280;10182;52.896;6.496;2023-08-21T17:08:11;102082.53;;;23.51;100.00
20043;BME280;10182;52.896;6.496;2023-08-21T17:13:12;102075.03;;;23.43;100.00
20043;BME280;10182;52.896;6.496;2023-08-21T17:18:15;102071.72;;;23.28;100.00
20043;BME280;10182;52.896;6.496;2023-08-21T17:23:17;102062.13;;;23.13;100.00
20043;BME280;10182;52.896;6.496;2023-08-21T17:28:19;102073.03;;;23.11;100.00
20043;BME280;10182;52.896;6.496;2023-08-21T17:33:22;102069.09;;;22.93;100.00
20043;BME280;10182;52.896;6.496;2023-08-21T17:38:23;102062.66;;;22.71;100.00
20043;BME280;10182;52.896;6.496;2023-08-21T17:43:25;102062.38;;;22.63;100.00
20043;BME280;10182;52.896;6.496;2023-08-21T17:48:28;102058.31;;;22.46;100.00
20043;BME280;10182;52.896;6.496;2023-08-21T17:53:30;102057.81;;;22.28;100.00
20043;BME280;10182;52.896;6.496;2023-08-21T17:58:32;102065.00;;;22.16;100.00
20043;BME280;10182;52.896;6.496;2023-08-21T18:03:35;102078.53;;;22.03;100.00
20043;BME280;10182;52.896;6.496;2023-08-21T18:08:37;102063.63;;;21.86;100.00
20043;BME280;10182;52.896;6.496;2023-08-21T18:13:38;102063.88;;;21.70;100.00
20043;BME280;10182;52.896;6.496;2023-08-21T18:18:41;102057.03;;;21.53;100.00
20043;BME280;10182;52.896;6.496;2023-08-21T18:23:45;102044.19;;;21.44;100.00
20043;BME280;10182;52.896;6.496;2023-08-21T18:28:47;102043.13;;;21.34;100.00
20043;BME280;10182;52.896;6.496;2023-08-21T18:33:50;102050.50;;;21.19;100.00
20043;BME280;10182;52.896;6.496;2023-08-21T18:38:52;102063.22;;;21.04;100.00
20043;BME280;10182;52.896;6.496;2023-08-21T18:43:53;102067.19;;;20.85;100.00
20043;BME280;10182;52.896;6.496;2023-08-21T18:48:56;102065.25;;;20.74;100.00
20043;BME280;10182;52.896;6.496;2023-08-21T18:53:58;102070.16;;;20.55;100.00
20043;BME280;10182;52.896;6.496;2023-08-21T18:59:00;102080.63;;;20.32;100.00
20043;BME280;10182;52.896;6.496;2023-08-21T19:04:03;102081.50;;;20.05;100.00
20043;BME280;10182;52.896;6.496;2023-08-21T19:09:05;102102.19;;;19.90;100.00
20043;BME280;10182;52.896;6.496;2023-08-21T19:14:06;102096.44;;;19.68;100.00
20043;BME280;10182;52.896;6.496;2023-08-21T19:19:28;102098.47;;;19.50;100.00
20043;BME280;10182;52.896;6.496;2023-08-21T19:24:49;102102.22;;;19.47;100.00
20043;BME280;10182;52.896;6.496;2023-08-21T19:30:10;102095.03;;;19.33;100.00
20043;BME280;10182;52.896;6.496;2023-08-21T19:35:33;102087.94;;;19.18;100.00
20043;BME280;10182;52.896;6.496;2023-08-21T19:40:54;102094.91;;;19.06;100.00
20043;BME280;10182;52.896;6.496;2023-08-21T19:45:55;102089.81;;;19.01;100.00
20043;BME280;10182;52.896;6.496;2023-08-21T19:50:59;102091.28;;;19.07;100.00
20043;BME280;10182;52.896;6.496;2023-08-21T19:56:00;102098.53;;;19.05;100.00
20043;BME280;10182;52.896;6.496;2023-08-21T20:01:04;102108.16;;;18.78;100.00
20043;BME280;10182;52.896;6.496;2023-08-21T20:06:08;102103.47;;;18.52;100.00
20043;BME280;10182;52.896;6.496;2023-08-21T20:11:10;102108.81;;;18.52;100.00
20043;BME280;10182;52.896;6.496;2023-08-21T20:16:11;102109.53;;;18.55;100.00
20043;BME280;10182;52.896;6.496;2023-08-21T20:21:14;102101.38;;;18.57;100.00
20043;BME280;10182;52.896;6.496;2023-08-21T20:26:17;102109.13;;;18.61;100.00
20043;BME280;10182;52.896;6.496;2023-08-21T20:31:20;102094.69;;;18.64;100.00
20043;BME280;10182;52.896;6.496;2023-08-21T20:36:24;102097.66;;;18.59;100.00
20043;BME280;10182;52.896;6.496;2023-08-21T20:41:25;102103.56;;;18.34;100.00
20043;BME280;10182;52.896;6.496;2023-08-21T20:46:27;102100.41;;;18.27;100.00
20043;BME280;10182;52.896;6.496;2023-08-21T20:51:30;102095.06;;;18.27;100.00
20043;BME280;10182;52.896;6.496;2023-08-21T20:56:31;102088.47;;;18.33;100.00
20043;BME280;10182;52.896;6.496;2023-08-21T21:01:33;102089.81;;;18.40;100.00
20043;BME280;10182;52.896;6.496;2023-08-21T21:06:36;102091.66;;;18.40;100.00
20043;BME280;10182;52.896;6.496;2023-08-21T21:11:38;102105.31;;;18.35;100.00
20043;BME280;10182;52.896;6.496;2023-08-21T21:16:39;102110.63;;;18.21;100.00
20043;BME280;10182;52.896;6.496;2023-08-21T21:21:42;102097.03;;;18.08;100.00
20043;BME280;10182;52.896;6.496;2023-08-21T21:26:44;102101.38;;;17.95;100.00
20043;BME280;10182;52.896;6.496;2023-08-21T21:31:46;102094.59;;;17.87;100.00
20043;BME280;10182;52.896;6.496;2023-08-21T21:36:49;102081.38;;;17.68;100.00
20043;BME280;10182;52.896;6.496;2023-08-21T21:41:51;102093.19;;;17.64;100.00
20043;BME280;10182;52.896;6.496;2023-08-21T21:46:52;102103.16;;;17.62;100.00
20043;BME280;10182;52.896;6.496;2023-08-21T21:51:55;102099.84;;;17.57;100.00
20043;BME280;10182;52.896;6.496;2023-08-21T21:56:57;102095.78;;;17.50;100.00
20043;BME280;10182;52.896;6.496;2023-08-21T22:01:59;102105.63;;;17.49;100.00
20043;BME280;10182;52.896;6.496;2023-08-21T22:07:02;102095.78;;;17.50;100.00
20043;BME280;10182;52.896;6.496;2023-08-21T22:12:05;102091.00;;;17.39;100.00
20043;BME280;10182;52.896;6.496;2023-08-21T22:17:06;102082.53;;;17.31;100.00
20043;BME280;10182;52.896;6.496;2023-08-21T22:22:10;102069.72;;;17.36;100.00
20043;BME280;10182;52.896;6.496;2023-08-21T22:27:11;102064.63;;;17.31;100.00
20043;BME280;10182;52.896;6.496;2023-08-21T22:32:13;102063.63;;;17.34;100.00
20043;BME280;10182;52.896;6.496;2023-08-21T22:37:18;102072.59;;;17.33;100.00
20043;BME280;10182;52.896;6.496;2023-08-21T22:42:20;102072.06;;;17.26;100.00
20043;BME280;10182;52.896;6.496;2023-08-21T22:47:21;102064.75;;;17.12;100.00
20043;BME280;10182;52.896;6.496;2023-08-21T22:52:25;102070.16;;;16.95;100.00
20043;BME280;10182;52.896;6.496;2023-08-21T22:57:26;102082.84;;;16.91;100.00
20043;BME280;10182;52.896;6.496;2023-08-21T23:02:28;102077.28;;;16.77;100.00
20043;BME280;10182;52.896;6.496;2023-08-21T23:07:32;102080.06;;;16.75;100.00
20043;BME280;10182;52.896;6.496;2023-08-21T23:12:34;102085.66;;;16.70;100.00
20043;BME280;10182;52.896;6.496;2023-08-21T23:17:35;102080.59;;;16.64;100.00
20043;BME280;10182;52.896;6.496;2023-08-21T23:22:38;102079.59;;;16.67;100.00
20043;BME280;10182;52.896;6.496;2023-08-21T23:27:40;102082.00;;;16.71;100.00
20043;BME280;10182;52.896;6.496;2023-08-21T23:32:42;102079.03;;;16.78;100.00
20043;BME280;10182;52.896;6.496;2023-08-21T23:37:45;102072.28;;;16.70;100.00
20043;BME280;10182;52.896;6.496;2023-08-21T23:42:47;102058.09;;;16.68;100.00
20043;BME280;10182;52.896;6.496;2023-08-21T23:47:49;102057.00;;;16.72;100.00
20043;BME280;10182;52.896;6.496;2023-08-21T23:52:52;102050.47;;;16.78;100.00
20043;BME280;10182;52.896;6.496;2023-08-21T23:57:54;102042.25;;;16.81;100.00
